Terminal Aerodrome Forecast
Issued by NWS Albuquerque, NM

Home | Current Version | Previous Version | Text Only | Print | Product List | Glossary On
Versions: 1 2 3 4 5 6 7 8 9 10 11 12 13 14 15 16 17
169
FTUS45 KABQ 010617 AAA
TAFABQ
TAF AMD
KABQ 010617Z 0106/0206 08018G28KT P6SM SCT100 BKN150
     FM011200 10012KT P6SM SCT050 BKN100
     FM011900 11012G22KT P6SM VCTS BKN060CB
     FM012200 11012G22KT P6SM VCSH SCT060 BKN090
     FM020400 10011KT P6SM BKN100=

USA.gov is the U.S. government's official web portal to all federal, state and local government web resources and services.